createdAt,value
2023-06-07T00:00:20.759Z,7.5
2023-06-07T00:01:21.366Z,7.1
2023-06-07T00:02:37.018Z,6.8
2023-06-07T00:03:23.794Z,7.2
2023-06-07T00:04:24.285Z,6.7
2023-06-07T00:05:24.839Z,8.0
2023-06-07T00:06:25.424Z,7.2
2023-06-07T00:07:26.026Z,7.1
2023-06-07T00:08:26.650Z,7.7
2023-06-07T00:09:27.271Z,6.4
2023-06-07T00:10:27.873Z,7.2
2023-06-07T00:11:28.492Z,6.3
2023-06-07T00:12:29.082Z,7.1
2023-06-07T00:13:29.704Z,7.1
2023-06-07T00:14:30.306Z,7.4
2023-06-07T00:15:30.910Z,7.0
2023-06-07T00:16:31.513Z,7.3
2023-06-07T00:17:32.162Z,6.9
2023-06-07T00:18:32.856Z,6.8
2023-06-07T00:19:33.383Z,7.5
2023-06-07T00:20:33.981Z,7.3
2023-06-07T00:21:34.581Z,6.9
2023-06-07T00:22:35.226Z,6.6
2023-06-07T00:23:35.857Z,7.3
2023-06-07T00:24:36.485Z,7.3
2023-06-07T00:25:37.077Z,6.6
2023-06-07T00:26:37.698Z,7.6
2023-06-07T00:27:38.299Z,7.4
2023-06-07T00:28:38.889Z,6.6
2023-06-07T00:29:39.518Z,7.2
2023-06-07T00:30:40.174Z,6.8
2023-06-07T00:31:40.796Z,7.1
2023-06-07T00:32:41.439Z,7.3
2023-06-07T00:33:42.021Z,6.9
2023-06-07T00:34:42.635Z,7.1
2023-06-07T00:35:43.257Z,7.9
2023-06-07T00:36:43.859Z,6.7
2023-06-07T00:37:44.466Z,7.5
2023-06-07T00:38:45.083Z,7.6
2023-06-07T00:39:45.688Z,7.2
2023-06-07T00:40:46.312Z,6.8
2023-06-07T00:41:46.914Z,7.9
2023-06-07T00:42:47.519Z,7.5
2023-06-07T00:43:48.116Z,7.5
2023-06-07T00:44:48.719Z,7.2
2023-06-07T00:45:49.321Z,7.8
2023-06-07T00:46:49.929Z,8.0
2023-06-07T00:47:50.618Z,7.4
2023-06-07T00:48:51.324Z,7.6
2023-06-07T00:49:51.922Z,7.7
2023-06-07T00:50:52.521Z,8.1
2023-06-07T00:51:53.121Z,7.0
2023-06-07T00:52:53.729Z,8.7
2023-06-07T00:53:54.328Z,7.8
2023-06-07T00:54:54.927Z,8.3
2023-06-07T00:55:55.534Z,7.5
2023-06-07T00:56:56.156Z,7.7
2023-06-07T00:57:56.779Z,7.4
2023-06-07T00:58:57.383Z,7.8
2023-06-07T00:59:57.984Z,7.1
2023-06-07T01:00:58.596Z,7.7
2023-06-07T01:01:59.222Z,7.9
2023-06-07T01:02:59.879Z,8.2
2023-06-07T01:04:00.542Z,8.5
2023-06-07T01:05:01.112Z,8.2
2023-06-07T01:06:01.721Z,7.7
2023-06-07T01:07:02.321Z,7.6
2023-06-07T01:08:02.924Z,8.9
2023-06-07T01:09:03.538Z,8.4
2023-06-07T01:10:04.295Z,8.1
2023-06-07T01:11:05.047Z,7.2
2023-06-07T01:12:05.673Z,7.6
2023-06-07T01:13:06.288Z,7.6
2023-06-07T01:14:06.873Z,8.7
2023-06-07T01:15:07.496Z,7.8
2023-06-07T01:16:08.111Z,7.9
2023-06-07T01:17:08.724Z,7.5
2023-06-07T01:18:09.357Z,7.1
2023-06-07T01:19:09.938Z,8.1
2023-06-07T01:20:10.610Z,7.7
2023-06-07T01:21:11.159Z,8.3
2023-06-07T01:22:11.765Z,8.4
2023-06-07T01:23:12.379Z,9.2
2023-06-07T01:24:13.333Z,7.3
2023-06-07T01:25:13.869Z,8.5
2023-06-07T01:26:14.436Z,7.3
2023-06-07T01:27:15.032Z,9.2
2023-06-07T01:28:15.646Z,9.6
2023-06-07T01:29:16.257Z,7.8
2023-06-07T01:30:16.870Z,7.9
2023-06-07T01:31:17.498Z,8.8
2023-06-07T01:32:18.167Z,8.7
2023-06-07T01:33:18.699Z,8.7
2023-06-07T01:34:19.354Z,7.6
2023-06-07T01:35:19.956Z,7.8
2023-06-07T01:36:20.570Z,8.1
2023-06-07T01:37:21.162Z,8.3
2023-06-07T01:38:21.777Z,8.8
2023-06-07T01:39:22.381Z,8.3
2023-06-07T01:40:22.986Z,8.4
2023-06-07T01:41:23.589Z,7.8
2023-06-07T01:42:24.190Z,8.1
2023-06-07T01:43:24.799Z,7.9
2023-06-07T01:44:25.397Z,7.8
2023-06-07T01:45:26.030Z,7.3
2023-06-07T01:46:26.717Z,8.6
2023-06-07T01:47:27.351Z,7.8
2023-06-07T01:48:27.936Z,8.4
2023-06-07T01:49:28.539Z,8.2
2023-06-07T01:50:29.159Z,8.2
2023-06-07T01:51:29.765Z,8.0
2023-06-07T01:52:30.371Z,8.9
2023-06-07T01:53:30.989Z,8.3
2023-06-07T01:54:31.577Z,8.6
2023-06-07T01:55:32.204Z,8.9
2023-06-07T01:56:32.823Z,8.6
2023-06-07T01:57:33.431Z,8.2
2023-06-07T01:58:34.032Z,8.9
2023-06-07T01:59:34.637Z,8.9
2023-06-07T02:00:35.245Z,8.1
2023-06-07T02:01:35.870Z,8.8
2023-06-07T02:02:36.487Z,8.2
2023-06-07T02:03:37.126Z,8.2
2023-06-07T02:04:37.701Z,8.6
2023-06-07T02:05:38.310Z,9.1
2023-06-07T02:06:38.908Z,8.1
2023-06-07T02:07:39.519Z,8.6
2023-06-07T02:08:40.131Z,9.0
2023-06-07T02:09:40.732Z,8.7
2023-06-07T02:10:41.335Z,9.8
2023-06-07T02:11:41.953Z,9.1
2023-06-07T02:12:42.562Z,9.7
2023-06-07T02:13:43.167Z,8.8
2023-06-07T02:14:43.770Z,8.0
2023-06-07T02:15:44.376Z,8.6
2023-06-07T02:16:45.028Z,8.5
2023-06-07T02:17:45.617Z,9.1
2023-06-07T02:18:46.209Z,8.1
2023-06-07T02:19:46.814Z,9.3
2023-06-07T02:20:47.413Z,8.6
2023-06-07T02:21:48.018Z,8.8
2023-06-07T02:22:48.624Z,9.3
2023-06-07T02:23:49.324Z,9.2
2023-06-07T02:24:49.923Z,9.3
2023-06-07T02:25:50.545Z,8.9
2023-06-07T02:26:51.151Z,8.4
2023-06-07T02:27:51.752Z,9.8
2023-06-07T02:28:52.354Z,8.8
2023-06-07T02:29:52.957Z,9.5
2023-06-07T02:30:53.584Z,8.9
2023-06-07T02:31:54.278Z,9.3
2023-06-07T02:32:55.085Z,8.4
2023-06-07T02:33:55.467Z,8.8
2023-06-07T02:34:56.071Z,8.7
2023-06-07T02:35:56.676Z,9.2
2023-06-07T02:36:57.304Z,9.1
2023-06-07T02:37:57.907Z,9.6
2023-06-07T02:38:58.509Z,9.5
2023-06-07T02:39:59.116Z,10.0
2023-06-07T02:40:59.718Z,9.8
2023-06-07T02:42:00.322Z,8.9
2023-06-07T02:43:00.935Z,9.4
2023-06-07T02:44:01.559Z,9.5
2023-06-07T02:45:02.158Z,9.7
2023-06-07T02:46:02.762Z,9.8
2023-06-07T02:47:03.439Z,9.6
2023-06-07T02:48:04.012Z,9.0
2023-06-07T02:49:04.593Z,9.3
2023-06-07T02:50:05.336Z,9.1
2023-06-07T02:51:06.003Z,9.2
2023-06-07T02:52:06.615Z,10.4
2023-06-07T02:53:07.352Z,9.5
2023-06-07T02:54:08.045Z,9.4
2023-06-07T02:55:08.641Z,10.1
2023-06-07T02:56:09.247Z,10.1
2023-06-07T02:57:09.855Z,9.2
2023-06-07T02:58:10.457Z,10.5
2023-06-07T02:59:11.107Z,9.1
2023-06-07T03:00:11.711Z,10.5
2023-06-07T03:01:12.316Z,9.8
2023-06-07T03:02:12.959Z,9.9
2023-06-07T03:03:13.790Z,9.0
2023-06-07T03:04:14.471Z,9.7
2023-06-07T03:05:15.096Z,8.8
2023-06-07T03:06:15.702Z,9.4
2023-06-07T03:07:16.307Z,8.8
2023-06-07T03:08:16.923Z,10.5
2023-06-07T03:09:17.549Z,9.6
2023-06-07T03:10:18.165Z,9.3
2023-06-07T03:11:19.103Z,10.0
2023-06-07T03:12:19.635Z,9.1
2023-06-07T03:13:20.253Z,9.8
2023-06-07T03:14:20.858Z,9.2
2023-06-07T03:15:21.486Z,10.2
2023-06-07T03:16:22.127Z,10.4
2023-06-07T03:17:22.706Z,9.9
2023-06-07T03:18:23.322Z,9.8
2023-06-07T03:19:23.919Z,9.5
2023-06-07T03:20:24.546Z,9.5
2023-06-07T03:21:25.154Z,10.2
2023-06-07T03:22:25.765Z,10.1
2023-06-07T03:23:26.660Z,9.1
2023-06-07T03:24:27.136Z,9.9
2023-06-07T03:25:27.759Z,11.0
2023-06-07T03:26:28.357Z,10.8
2023-06-07T03:27:28.974Z,9.8
2023-06-07T03:28:29.568Z,10.0
2023-06-07T03:29:30.182Z,11.0
2023-06-07T03:30:30.815Z,10.8
2023-06-07T03:31:31.433Z,10.5
2023-06-07T03:32:32.065Z,10.5
2023-06-07T03:33:32.656Z,11.1
2023-06-07T03:34:33.272Z,9.9
2023-06-07T03:35:33.901Z,10.6
2023-06-07T03:36:34.510Z,11.0
2023-06-07T03:37:35.130Z,10.9
2023-06-07T03:38:36.012Z,10.5
2023-06-07T03:39:36.537Z,10.8
2023-06-07T03:40:37.138Z,11.0
2023-06-07T03:41:37.748Z,12.1
2023-06-07T03:42:38.354Z,11.1
2023-06-07T03:43:38.963Z,11.2
2023-06-07T03:44:39.572Z,12.5
2023-06-07T03:45:40.178Z,11.3
2023-06-07T03:46:40.790Z,12.6
2023-06-07T03:47:41.491Z,11.3
2023-06-07T03:48:42.125Z,11.6
2023-06-07T03:49:42.710Z,11.5
2023-06-07T03:50:43.321Z,11.6
2023-06-07T03:51:43.921Z,11.4
2023-06-07T03:52:44.531Z,12.0
2023-06-07T03:53:45.134Z,12.8
2023-06-07T03:54:45.741Z,12.6
2023-06-07T03:55:46.349Z,11.9
2023-06-07T03:56:46.976Z,13.3
2023-06-07T03:57:47.558Z,11.0
2023-06-07T03:58:48.187Z,12.4
2023-06-07T03:59:48.808Z,12.4
2023-06-07T04:00:49.420Z,11.9
2023-06-07T04:01:50.033Z,13.1
2023-06-07T04:02:50.789Z,12.6
2023-06-07T04:03:51.538Z,12.5
2023-06-07T04:04:52.258Z,13.3
2023-06-07T04:05:52.834Z,12.6
2023-06-07T04:06:53.489Z,14.3
2023-06-07T04:07:54.097Z,13.4
2023-06-07T04:08:54.709Z,12.5
2023-06-07T04:09:55.306Z,13.3
2023-06-07T04:10:55.939Z,13.9
2023-06-07T04:11:56.526Z,12.9
2023-06-07T04:12:57.145Z,13.0
2023-06-07T04:13:57.743Z,12.9
2023-06-07T04:14:58.351Z,13.6
2023-06-07T04:15:58.973Z,14.2
2023-06-07T04:16:59.702Z,13.8
2023-06-07T04:18:00.334Z,13.0
2023-06-07T04:19:02.294Z,13.6
2023-06-07T04:20:02.536Z,13.4
2023-06-07T04:21:03.148Z,12.8
2023-06-07T04:22:03.777Z,14.1
2023-06-07T04:23:04.389Z,13.6
2023-06-07T04:24:05.063Z,14.9
2023-06-07T04:25:05.638Z,13.1
2023-06-07T04:26:06.263Z,15.1
2023-06-07T04:27:06.864Z,14.4
2023-06-07T04:28:07.470Z,13.8
2023-06-07T04:29:08.081Z,14.2
2023-06-07T04:30:08.697Z,13.3
2023-06-07T04:31:09.298Z,14.4
2023-06-07T04:32:10.001Z,13.7
2023-06-07T04:33:10.784Z,14.3
2023-06-07T04:34:11.487Z,14.0
2023-06-07T04:35:12.091Z,13.3
2023-06-07T04:36:12.728Z,12.8
2023-06-07T04:37:13.332Z,13.6
2023-06-07T04:38:13.963Z,13.7
2023-06-07T04:39:14.570Z,13.9
2023-06-07T04:40:15.185Z,15.1
2023-06-07T04:41:15.788Z,14.0
2023-06-07T04:42:16.431Z,14.8
2023-06-07T04:43:17.045Z,13.2
2023-06-07T04:44:17.650Z,12.6
2023-06-07T04:45:18.276Z,13.4
2023-06-07T04:46:18.933Z,12.6
2023-06-07T04:47:19.499Z,14.7
2023-06-07T04:48:20.132Z,13.3
2023-06-07T04:49:20.737Z,14.2
2023-06-07T04:50:21.350Z,13.2
2023-06-07T04:51:22.021Z,14.0
2023-06-07T04:52:22.599Z,13.0
2023-06-07T04:53:23.228Z,13.5
2023-06-07T04:54:23.847Z,13.1
2023-06-07T04:55:24.445Z,12.9
2023-06-07T04:56:25.060Z,12.5
2023-06-07T04:57:25.688Z,13.8
2023-06-07T04:58:26.315Z,13.0
2023-06-07T04:59:26.947Z,13.1
2023-06-07T05:00:27.553Z,13.2
2023-06-07T05:01:28.247Z,12.8
2023-06-07T05:02:28.868Z,12.1
2023-06-07T05:03:29.455Z,12.9
2023-06-07T05:04:30.061Z,12.4
2023-06-07T05:05:30.676Z,12.4
2023-06-07T05:06:31.281Z,13.2
2023-06-07T05:07:31.890Z,13.1
2023-06-07T05:08:32.520Z,12.1
2023-06-07T05:09:33.138Z,12.8
2023-06-07T05:10:33.728Z,13.2
2023-06-07T05:11:34.327Z,12.1
2023-06-07T05:12:34.936Z,13.9
2023-06-07T05:13:35.558Z,12.3
2023-06-07T05:14:36.168Z,12.6
2023-06-07T05:15:36.807Z,13.0
2023-06-07T05:16:37.419Z,13.2
2023-06-07T05:17:38.037Z,13.9
2023-06-07T05:18:38.633Z,12.4
2023-06-07T05:19:39.241Z,13.8
2023-06-07T05:20:39.866Z,13.4
2023-06-07T05:21:40.543Z,12.6
2023-06-07T05:22:41.149Z,13.7
2023-06-07T05:23:41.776Z,13.1
2023-06-07T05:24:42.379Z,13.0
2023-06-07T05:25:42.975Z,13.5
2023-06-07T05:26:43.609Z,13.8
2023-06-07T05:27:44.218Z,14.2
2023-06-07T05:28:44.842Z,14.0
2023-06-07T05:29:45.451Z,14.1
2023-06-07T05:30:46.064Z,13.6
2023-06-07T05:31:46.728Z,14.3
2023-06-07T05:32:47.393Z,14.2
2023-06-07T05:33:47.998Z,14.2
2023-06-07T05:34:48.606Z,13.9
2023-06-07T05:35:49.227Z,14.4
2023-06-07T05:36:49.823Z,14.4
2023-06-07T05:37:50.434Z,13.6
2023-06-07T05:38:51.053Z,14.3
2023-06-07T05:39:51.655Z,14.1
2023-06-07T05:40:52.280Z,14.6
2023-06-07T05:41:52.898Z,15.1
2023-06-07T05:42:53.498Z,14.5
2023-06-07T05:43:54.107Z,15.0
2023-06-07T05:44:54.717Z,16.0
2023-06-07T05:45:55.361Z,15.4
2023-06-07T05:46:55.973Z,14.7
2023-06-07T05:47:56.604Z,14.9
2023-06-07T05:48:57.174Z,14.8
2023-06-07T05:49:57.784Z,15.0
2023-06-07T05:50:58.408Z,15.3
2023-06-07T05:51:59.002Z,14.6
2023-06-07T05:52:59.609Z,13.5
2023-06-07T05:54:00.264Z,15.3
2023-06-07T05:55:00.831Z,14.3
2023-06-07T05:56:01.440Z,15.2
2023-06-07T05:57:02.050Z,15.2
2023-06-07T05:58:02.690Z,14.8
2023-06-07T05:59:03.287Z,15.5
2023-06-07T06:00:04.118Z,14.1
2023-06-07T06:01:04.922Z,14.4
2023-06-07T06:02:05.593Z,15.3
2023-06-07T06:03:06.192Z,14.8
2023-06-07T06:04:06.763Z,15.2
2023-06-07T06:05:07.501Z,15.2
2023-06-07T06:06:08.002Z,14.3
2023-06-07T06:07:08.613Z,15.7
2023-06-07T06:08:09.237Z,15.6
2023-06-07T06:09:09.849Z,14.8
2023-06-07T06:10:10.457Z,14.1
2023-06-07T06:11:11.066Z,15.7
2023-06-07T06:12:11.678Z,14.7
2023-06-07T06:13:12.362Z,14.7
2023-06-07T06:14:12.914Z,15.5
2023-06-07T06:15:13.585Z,15.5
2023-06-07T06:16:14.199Z,16.0
2023-06-07T06:17:14.898Z,15.0
2023-06-07T06:18:15.812Z,15.0
2023-06-07T06:19:16.335Z,16.0
2023-06-07T06:20:16.945Z,15.0
2023-06-07T06:21:17.552Z,15.4
2023-06-07T06:22:18.163Z,15.5
2023-06-07T06:23:18.772Z,15.6
2023-06-07T06:24:19.476Z,15.1
2023-06-07T06:25:20.108Z,14.6
2023-06-07T06:26:20.701Z,15.6
2023-06-07T06:27:21.359Z,15.6
2023-06-07T06:28:21.920Z,15.8
2023-06-07T06:29:22.551Z,15.7
2023-06-07T06:30:23.180Z,15.1
2023-06-07T06:31:23.902Z,14.8
2023-06-07T06:32:24.508Z,13.5
2023-06-07T06:33:25.083Z,13.7
2023-06-07T06:34:25.685Z,14.4
2023-06-07T06:35:26.297Z,15.1
2023-06-07T06:36:26.907Z,14.9
2023-06-07T06:37:27.516Z,14.3
2023-06-07T06:38:28.126Z,14.2
2023-06-07T06:39:28.754Z,14.2
2023-06-07T06:40:29.386Z,15.3
2023-06-07T06:41:29.980Z,14.2
2023-06-07T06:42:30.589Z,15.1
2023-06-07T06:43:31.207Z,14.1
2023-06-07T06:44:31.811Z,14.4
2023-06-07T06:45:32.443Z,14.7
2023-06-07T06:46:33.067Z,14.0
2023-06-07T06:47:33.681Z,13.5
2023-06-07T06:48:34.290Z,14.4
2023-06-07T06:49:34.917Z,13.4
2023-06-07T06:50:35.899Z,13.7
2023-06-07T06:51:36.659Z,13.1
2023-06-07T06:52:37.276Z,14.0
2023-06-07T06:53:37.892Z,13.7
2023-06-07T06:54:38.529Z,13.6
2023-06-07T06:55:39.163Z,13.8
2023-06-07T06:56:39.938Z,14.0
2023-06-07T06:57:40.870Z,14.5
2023-06-07T06:58:41.393Z,14.5
2023-06-07T06:59:42.008Z,14.1
2023-06-07T07:00:42.611Z,13.4
2023-06-07T07:01:43.295Z,13.2
2023-06-07T07:02:43.884Z,14.2
2023-06-07T07:03:44.499Z,14.1
2023-06-07T07:04:45.113Z,13.7
2023-06-07T07:05:45.697Z,14.4
2023-06-07T07:06:46.300Z,13.8
2023-06-07T07:07:46.921Z,14.3
2023-06-07T07:08:47.523Z,14.6
2023-06-07T07:09:48.131Z,14.3
2023-06-07T07:10:48.737Z,13.8
2023-06-07T07:11:49.369Z,13.7
2023-06-07T07:12:49.999Z,14.1
2023-06-07T07:13:50.607Z,13.3
2023-06-07T07:14:51.225Z,14.4
2023-06-07T07:15:51.852Z,13.5
2023-06-07T07:16:52.486Z,14.0
2023-06-07T07:17:53.147Z,13.7
2023-06-07T07:18:53.712Z,14.2
2023-06-07T07:19:54.339Z,13.4
2023-06-07T07:20:54.949Z,13.6
2023-06-07T07:21:55.567Z,12.9
2023-06-07T07:22:56.203Z,13.2
2023-06-07T07:23:56.910Z,12.6
2023-06-07T07:24:57.438Z,12.5
2023-06-07T07:25:58.050Z,11.7
2023-06-07T07:26:58.661Z,13.3
2023-06-07T07:27:59.273Z,12.1
2023-06-07T07:28:59.882Z,13.7
2023-06-07T07:30:00.500Z,12.1
2023-06-07T07:31:01.130Z,12.0
2023-06-07T07:32:01.741Z,11.5
2023-06-07T07:33:02.411Z,12.8
2023-06-07T07:34:02.990Z,11.7
2023-06-07T07:35:03.669Z,12.2
2023-06-07T07:36:04.269Z,12.1
2023-06-07T07:37:04.878Z,11.6
2023-06-07T07:38:05.491Z,12.7
2023-06-07T07:39:06.102Z,12.1
2023-06-07T07:40:07.163Z,12.4
2023-06-07T07:41:08.044Z,12.6
2023-06-07T07:42:08.571Z,11.5
2023-06-07T07:43:09.197Z,11.6
2023-06-07T07:44:09.811Z,11.6
2023-06-07T07:45:10.431Z,11.2
2023-06-07T07:46:11.119Z,11.8
2023-06-07T07:47:11.725Z,11.7
2023-06-07T07:48:12.407Z,12.2
2023-06-07T07:49:12.967Z,11.3
2023-06-07T07:50:13.616Z,12.0
2023-06-07T07:51:14.190Z,11.7
2023-06-07T07:52:14.823Z,12.7
2023-06-07T07:53:15.430Z,11.8
2023-06-07T07:54:16.042Z,11.2
2023-06-07T07:55:16.674Z,12.2
2023-06-07T07:56:17.283Z,12.4
2023-06-07T07:57:17.898Z,12.3
2023-06-07T07:58:18.518Z,13.6
2023-06-07T07:59:19.116Z,12.7
2023-06-07T08:00:19.723Z,12.6
2023-06-07T08:01:20.338Z,12.9
2023-06-07T08:02:20.989Z,12.1
2023-06-07T08:03:21.729Z,12.7
2023-06-07T08:04:22.343Z,12.7
2023-06-07T08:05:22.955Z,11.7
2023-06-07T08:06:23.580Z,12.6
2023-06-07T08:07:24.172Z,13.2
2023-06-07T08:08:24.785Z,12.9
2023-06-07T08:09:25.394Z,12.1
2023-06-07T08:10:26.006Z,11.8
2023-06-07T08:11:26.633Z,11.9
2023-06-07T08:12:27.246Z,12.5
2023-06-07T08:13:27.853Z,12.0
2023-06-07T08:14:28.461Z,11.8
2023-06-07T08:15:29.075Z,12.4
2023-06-07T08:16:29.759Z,11.9
2023-06-07T08:17:30.323Z,12.5
2023-06-07T08:18:30.933Z,12.3
2023-06-07T08:19:31.558Z,12.2
2023-06-07T08:20:32.171Z,12.2
2023-06-07T08:21:32.795Z,12.3
2023-06-07T08:22:33.418Z,11.6
2023-06-07T08:23:34.064Z,13.0
2023-06-07T08:24:34.720Z,12.2
2023-06-07T08:25:35.347Z,12.1
2023-06-07T08:26:36.001Z,11.3
2023-06-07T08:27:36.623Z,12.8
2023-06-07T08:28:37.233Z,12.7
2023-06-07T08:29:37.861Z,11.9
2023-06-07T08:30:38.452Z,12.7
2023-06-07T08:31:39.090Z,12.7
2023-06-07T08:32:39.720Z,11.9
2023-06-07T08:33:40.334Z,12.5
2023-06-07T08:34:40.938Z,12.2
2023-06-07T08:35:41.529Z,12.5
2023-06-07T08:36:42.136Z,12.0
2023-06-07T08:37:42.746Z,12.8
2023-06-07T08:38:43.357Z,12.8
2023-06-07T08:39:43.998Z,11.4
2023-06-07T08:40:44.601Z,11.8
2023-06-07T08:41:45.212Z,12.7
2023-06-07T08:42:45.819Z,12.3
2023-06-07T08:43:46.433Z,11.7
2023-06-07T08:44:47.043Z,11.7
2023-06-07T08:45:47.708Z,12.7
2023-06-07T08:46:48.268Z,12.5
2023-06-07T08:47:48.937Z,12.1
2023-06-07T08:48:49.580Z,11.5
2023-06-07T08:49:50.190Z,11.7
2023-06-07T08:50:50.803Z,11.6
2023-06-07T08:52:03.163Z,11.2
2023-06-07T08:52:53.019Z,11.4
2023-06-07T08:53:53.630Z,12.0
2023-06-07T08:54:54.266Z,10.8
2023-06-07T08:55:54.880Z,10.8
2023-06-07T08:56:55.544Z,11.6
2023-06-07T08:57:56.092Z,11.6
2023-06-07T08:58:56.701Z,11.9
2023-06-07T08:59:57.315Z,10.7
2023-06-07T09:00:57.968Z,10.7
2023-06-07T09:01:58.591Z,11.7
2023-06-07T09:02:59.285Z,10.6
2023-06-07T09:04:00.042Z,9.9
2023-06-07T09:05:00.718Z,10.0
2023-06-07T09:06:01.355Z,9.9
2023-06-07T09:07:01.985Z,10.5
2023-06-07T09:08:02.596Z,9.9
2023-06-07T09:09:03.206Z,10.9
2023-06-07T09:10:04.132Z,11.1
2023-06-07T09:11:04.448Z,10.7
2023-06-07T09:12:05.072Z,10.5
2023-06-07T09:13:05.674Z,10.8
2023-06-07T09:14:06.295Z,10.7
2023-06-07T09:15:06.907Z,11.1
2023-06-07T09:16:07.523Z,10.0
2023-06-07T09:17:08.211Z,9.5
2023-06-07T09:18:09.056Z,9.2
2023-06-07T09:19:09.696Z,9.3
2023-06-07T09:20:10.311Z,9.3
2023-06-07T09:21:10.916Z,8.5
2023-06-07T09:22:11.550Z,8.6
2023-06-07T09:23:12.178Z,9.1
2023-06-07T09:24:12.879Z,9.9
2023-06-07T09:25:13.497Z,9.3
2023-06-07T09:26:14.147Z,8.4
2023-06-07T09:27:14.933Z,8.9
2023-06-07T09:28:15.459Z,9.2
2023-06-07T09:29:16.088Z,8.6
2023-06-07T09:30:16.720Z,9.2
2023-06-07T09:31:17.405Z,9.4
2023-06-07T09:32:18.042Z,9.9
2023-06-07T09:33:18.705Z,9.0
2023-06-07T09:34:19.316Z,9.4
2023-06-07T09:35:19.972Z,9.5
2023-06-07T09:36:20.593Z,9.6
2023-06-07T09:37:21.187Z,9.3
2023-06-07T09:38:21.799Z,9.1
2023-06-07T09:39:22.400Z,9.7
2023-06-07T09:40:23.030Z,9.3
2023-06-07T09:41:23.639Z,10.3
2023-06-07T09:42:24.314Z,9.7
2023-06-07T09:43:24.869Z,9.7
2023-06-07T09:44:25.496Z,9.6
2023-06-07T09:45:26.090Z,9.5
2023-06-07T09:46:26.845Z,9.5
2023-06-07T09:47:27.693Z,9.9
2023-06-07T09:48:28.505Z,10.0
2023-06-07T09:49:29.220Z,9.0
2023-06-07T09:50:29.798Z,9.1
2023-06-07T09:51:30.438Z,9.8
2023-06-07T09:52:31.113Z,9.1
2023-06-07T09:53:31.678Z,9.3
2023-06-07T09:54:32.321Z,8.9
2023-06-07T09:55:32.922Z,9.8
2023-06-07T09:56:33.567Z,9.1
2023-06-07T09:57:34.184Z,8.9
2023-06-07T09:58:34.782Z,9.3
2023-06-07T09:59:35.400Z,8.8
2023-06-07T10:00:36.058Z,9.7
2023-06-07T10:01:36.750Z,8.4
2023-06-07T10:02:37.417Z,9.1
2023-06-07T10:03:38.096Z,9.1
2023-06-07T10:04:38.977Z,8.5
2023-06-07T10:05:39.619Z,8.2
2023-06-07T10:06:40.201Z,8.5
2023-06-07T10:07:40.899Z,9.2
2023-06-07T10:08:41.477Z,7.8
2023-06-07T10:09:42.113Z,8.1
2023-06-07T10:10:42.687Z,8.8
2023-06-07T10:11:43.307Z,8.4
2023-06-07T10:12:44.033Z,8.3
2023-06-07T10:13:44.555Z,8.7
2023-06-07T10:14:45.213Z,9.0
2023-06-07T10:15:45.857Z,7.9
2023-06-07T10:16:46.590Z,8.4
2023-06-07T10:17:47.303Z,8.5
2023-06-07T10:18:47.824Z,7.8
2023-06-07T10:19:48.435Z,8.4
2023-06-07T10:20:49.056Z,8.1
2023-06-07T10:21:49.669Z,8.3
2023-06-07T10:22:50.330Z,7.5
2023-06-07T10:23:51.094Z,8.0
2023-06-07T10:24:51.868Z,8.1
2023-06-07T10:25:52.482Z,8.5
2023-06-07T10:26:53.099Z,7.4
2023-06-07T10:27:53.734Z,8.3
2023-06-07T10:28:54.390Z,9.6
2023-06-07T10:29:54.985Z,8.3
2023-06-07T10:30:55.601Z,8.0
2023-06-07T10:31:56.369Z,8.6
2023-06-07T10:32:57.064Z,9.1
2023-06-07T10:33:57.634Z,8.7
2023-06-07T10:34:58.261Z,7.9
2023-06-07T10:35:58.872Z,8.0
2023-06-07T10:36:59.518Z,8.4
2023-06-07T10:38:00.111Z,8.9
2023-06-07T10:39:00.768Z,8.5
2023-06-07T10:40:01.411Z,7.9
2023-06-07T10:41:02.003Z,9.1
2023-06-07T10:42:02.613Z,7.8
2023-06-07T10:43:03.237Z,9.4
2023-06-07T10:44:03.842Z,9.0
2023-06-07T10:45:04.451Z,7.8
2023-06-07T10:46:05.123Z,8.2
2023-06-07T10:47:05.802Z,9.0
2023-06-07T10:48:06.423Z,8.2
2023-06-07T10:49:07.013Z,8.2
2023-06-07T10:50:08.213Z,8.0
2023-06-07T10:51:08.312Z,9.0
2023-06-07T10:52:09.080Z,7.9
2023-06-07T10:53:09.952Z,8.2
2023-06-07T10:54:11.152Z,8.3
2023-06-07T10:55:11.802Z,9.3
2023-06-07T10:56:12.414Z,9.4
2023-06-07T10:57:13.021Z,8.9
2023-06-07T10:58:13.675Z,8.1
2023-06-07T10:59:14.443Z,8.3
2023-06-07T11:00:17.119Z,7.5
2023-06-07T11:01:16.805Z,7.8
2023-06-07T11:02:17.494Z,8.5
2023-06-07T11:03:18.087Z,7.9
2023-06-07T11:04:19.028Z,7.9
2023-06-07T11:05:19.555Z,8.6
2023-06-07T11:06:20.155Z,8.1
2023-06-07T11:07:20.947Z,8.5
2023-06-07T11:08:21.692Z,8.1
2023-06-07T11:09:22.356Z,8.1
2023-06-07T11:10:22.950Z,9.0
2023-06-07T11:11:25.039Z,8.3
2023-06-07T11:12:25.172Z,8.2
2023-06-07T11:13:25.810Z,8.4
2023-06-07T11:14:26.403Z,7.8
2023-06-07T11:15:27.012Z,8.7
2023-06-07T11:16:27.712Z,8.5
2023-06-07T11:17:28.288Z,8.2
2023-06-07T11:18:28.996Z,8.1
2023-06-07T11:19:29.512Z,7.8
2023-06-07T11:20:30.134Z,8.2
2023-06-07T11:21:30.731Z,9.1
2023-06-07T11:22:31.344Z,8.5
2023-06-07T11:23:32.113Z,7.8
2023-06-07T11:24:32.946Z,8.9
2023-06-07T11:25:33.696Z,8.2
2023-06-07T11:26:34.306Z,8.1
2023-06-07T11:27:34.925Z,8.5
2023-06-07T11:28:35.587Z,7.8
2023-06-07T11:29:36.185Z,8.1
2023-06-07T11:30:36.876Z,7.7
2023-06-07T11:31:37.465Z,8.5
2023-06-07T11:32:38.096Z,9.0
2023-06-07T11:33:38.723Z,8.1
2023-06-07T11:34:39.335Z,8.0
2023-06-07T11:35:39.925Z,7.9
2023-06-07T11:36:40.535Z,8.1
2023-06-07T11:37:41.144Z,8.1
2023-06-07T11:38:41.764Z,8.5
2023-06-07T11:39:42.390Z,8.1
2023-06-07T11:40:42.997Z,8.4
2023-06-07T11:41:45.217Z,8.7
2023-06-07T11:42:45.209Z,8.0
2023-06-07T11:43:45.943Z,8.4
2023-06-07T11:44:46.458Z,8.4
2023-06-07T11:45:47.093Z,8.2
2023-06-07T11:46:47.788Z,8.3
2023-06-07T11:47:49.252Z,8.3
2023-06-07T11:48:49.109Z,8.4
2023-06-07T11:49:49.731Z,7.7
2023-06-07T11:50:50.346Z,9.4
2023-06-07T11:51:50.972Z,9.5
2023-06-07T11:52:51.584Z,8.1
2023-06-07T11:53:52.213Z,8.2
2023-06-07T11:54:52.823Z,8.8
2023-06-07T11:55:53.433Z,8.3
2023-06-07T11:56:54.048Z,8.4
2023-06-07T11:57:54.726Z,9.2
2023-06-07T11:58:55.299Z,8.8
2023-06-07T11:59:56.001Z,8.1
2023-06-07T12:00:56.537Z,8.4
2023-06-07T12:01:57.226Z,7.7
2023-06-07T12:02:57.910Z,8.0
2023-06-07T12:03:58.489Z,8.3
2023-06-07T12:04:59.055Z,8.1
2023-06-07T12:05:59.688Z,7.8
2023-06-07T12:07:00.300Z,8.7
2023-06-07T12:08:00.906Z,8.3
2023-06-07T12:09:01.519Z,7.9
2023-06-07T12:10:02.205Z,7.8
2023-06-07T12:11:02.771Z,7.8
2023-06-07T12:12:03.384Z,8.3
2023-06-07T12:13:04.018Z,8.2
2023-06-07T12:14:04.655Z,8.5
2023-06-07T12:15:05.239Z,8.1
2023-06-07T12:16:05.926Z,8.0
2023-06-07T12:17:06.494Z,7.8
2023-06-07T12:18:07.193Z,7.7
2023-06-07T12:19:07.765Z,7.9
2023-06-07T12:20:08.387Z,8.2
2023-06-07T12:21:09.003Z,7.8
2023-06-07T12:22:09.615Z,8.1
2023-06-07T12:23:10.222Z,7.9
2023-06-07T12:24:10.933Z,8.4
2023-06-07T12:25:11.514Z,7.0
2023-06-07T12:26:12.141Z,7.8
2023-06-07T12:27:12.767Z,8.1
2023-06-07T12:28:13.518Z,7.7
2023-06-07T12:29:14.095Z,7.9
2023-06-07T12:30:14.653Z,8.0
2023-06-07T12:31:15.295Z,8.3
2023-06-07T12:32:15.873Z,7.8
2023-06-07T12:33:16.583Z,7.5
2023-06-07T12:34:17.232Z,7.5
2023-06-07T12:35:17.841Z,7.2
2023-06-07T12:36:18.451Z,7.7
2023-06-07T12:37:19.088Z,8.1
2023-06-07T12:38:19.693Z,8.1
2023-06-07T12:39:20.304Z,8.1
2023-06-07T12:40:20.931Z,8.0
2023-06-07T12:41:21.529Z,7.6
2023-06-07T12:42:22.177Z,7.2
2023-06-07T12:43:22.768Z,7.4
2023-06-07T12:44:23.378Z,7.8
2023-06-07T12:45:23.990Z,7.5
2023-06-07T12:46:24.630Z,6.7
2023-06-07T12:47:25.289Z,7.5
2023-06-07T12:48:25.864Z,8.1
2023-06-07T12:49:26.531Z,7.9
2023-06-07T12:50:27.101Z,7.5
2023-06-07T12:51:27.730Z,7.1
2023-06-07T12:52:28.337Z,7.7
2023-06-07T12:53:31.463Z,7.4
2023-06-07T12:54:30.553Z,7.4
2023-06-07T12:55:31.164Z,7.3
2023-06-07T12:56:31.785Z,7.1
2023-06-07T12:57:32.383Z,7.8
2023-06-07T12:58:32.996Z,7.5
2023-06-07T12:59:33.624Z,7.6
2023-06-07T13:00:34.237Z,7.6
2023-06-07T13:01:34.949Z,7.5
2023-06-07T13:02:35.837Z,7.3
2023-06-07T13:03:36.591Z,7.7
2023-06-07T13:04:37.196Z,7.7
2023-06-07T13:05:37.809Z,7.7
2023-06-07T13:06:38.451Z,8.4
2023-06-07T13:07:39.054Z,6.8
2023-06-07T13:08:39.680Z,7.6
2023-06-07T13:09:40.274Z,6.4
2023-06-07T13:10:40.884Z,7.7
2023-06-07T13:11:41.498Z,7.1
2023-06-07T13:12:42.108Z,7.2
2023-06-07T13:13:42.717Z,7.2
2023-06-07T13:14:43.332Z,7.8
2023-06-07T13:15:43.938Z,7.3
2023-06-07T13:16:44.663Z,6.9
2023-06-07T13:17:45.599Z,7.5
2023-06-07T13:18:46.300Z,7.7
2023-06-07T13:19:46.917Z,8.2
2023-06-07T13:20:47.543Z,7.6
2023-06-07T13:21:48.143Z,7.5
2023-06-07T13:22:48.748Z,7.6
2023-06-07T13:23:49.426Z,6.8
2023-06-07T13:24:50.048Z,6.6
2023-06-07T13:25:50.659Z,7.5
2023-06-07T13:26:51.272Z,7.5
2023-06-07T13:27:51.884Z,7.6
2023-06-07T13:28:52.489Z,6.9
2023-06-07T13:29:53.100Z,7.1
2023-06-07T13:30:53.715Z,6.7
2023-06-07T13:31:54.373Z,6.4
2023-06-07T13:32:55.015Z,7.3
2023-06-07T13:33:55.603Z,6.6
2023-06-07T13:34:56.243Z,7.0
2023-06-07T13:35:56.837Z,5.8
2023-06-07T13:36:57.451Z,6.5
2023-06-07T13:37:58.056Z,7.3
2023-06-07T13:38:58.667Z,6.9
2023-06-07T13:39:59.278Z,6.4
2023-06-07T13:41:01.376Z,6.4
2023-06-07T13:42:01.491Z,6.8